Fontana, CA (92334)

9:33 AM PDT on August 30, 2015 (GMT -0700)
Southwest Fontana | | Change Station
CLOSE
Current Station
Personal Weather Station
Location: Fontana, CA
Elevation: 994 ft
Nearby Weather Stations

Elev 994 ft 34.06 °N, 117.49 °W | Updated 14 seconds ago

Clear
Clear
84.7 °F
Feels Like 84 °F
N
3.0
Wind Variable Wind from West
Gusts 3.0 mph

Today
High -- | Low -- °F
--% Chance of Precip.
Yesterday
High -- | Low -- °F
Precip. -- in
6:21 AM 7:18 PM
Full, 99% visible
Pressure 29.87 in
Visibility 10.0 miles
Clouds Few 20000 ft
Heat Index 84 °F
Dew Point 56 °F
Humidity 38%
Rainfall 0.00 in
Snow Depth Not available.
UV 3 out of 12
Pollen 6.00 out of 12
Air Quality Not available.
Flu Activity Not available.
METAR KONT 301553Z 24003KT 10SM FEW200 26/16 A2992 RMK AO2 SLP115 T02560156
Pressure 29.87 in
Visibility 10.0 miles
Clouds Few 20000 ft
Heat Index 84 °F
Dew Point 56 °F
Humidity 38%
Rainfall 0.00 in
Snow Depth Not available.
UV 3 out of 12
Pollen 6.00 out of 12
Air Quality Not available.
Flu Activity Not available.
METAR KONT 301553Z 24003KT 10SM FEW200 26/16 A2992 RMK AO2 SLP115 T02560156

10-Day Weather Forecast

×

Almanac

Astronomy

Aug. 30, 2015 Rise Set
Actual Time
Civil Twilight
Nautical Twilight
Astronomical Twilight
Moon
Length of Visible Light
Length of Day
Tomorrow will be .
, % of the Moon is Illuminated

Today's Extremes

State Highs State Lows

Community

WunderPhotos

Upload Photos

1,851,008 photos uploaded!

WunderBlogs® & News

Nearby

Air Quality

  Air Quality AQ Index Pollutant
Not available.

Snow Depth

Station Depth Elevation

Earthquake Activity

City Distance Mag. Time & Date
Minimum magnitude displayed is 2.5.

Coastal Water Temperatures

Place Temperature

Stations

Nearby Weather Stations

Station Location Temp. Windchill Dew Point Humidity Wind Precip. Elev Updated Type